This is the latest recevied weather packets stored in our database for station/object DH1FR-13. If no packets are shown the sender has not sent any weather packets the latest 10 day(s).
| Time | Temp. | Humidity | Pressure | Rain* | Wind** | Luminosity | Snow |
|---|---|---|---|---|---|---|---|
| 1777368001 | 16.11° C | 46% | 1024.5 hPa | 0 mm | 0 m/s | - | - |
| 1777367401 | 15° C | 56% | 1024.5 hPa | 0 mm | 0 m/s | - | - |
| 1777366801 | 15.56° C | 57% | 1024.4 hPa | 0 mm | 0 m/s | - | - |
| 1777366201 | 15° C | 55% | 1024.4 hPa | 0 mm | 0 m/s | - | - |
| 1777365600 | 15° C | 58% | 1024.4 hPa | 0 mm | 0 m/s | - | - |
| 1777365001 | 14.44° C | 59% | 1024.3 hPa | 0 mm | 0 m/s | - | - |
| 1777364401 | 13.89° C | 59% | 1024.6 hPa | 0 mm | 0 m/s | - | - |
| 1777363801 | 12.78° C | 61% | 1024.2 hPa | 0 mm | 0 m/s | - | - |
| 1777363201 | 12.78° C | 59% | 1024.3 hPa | 0 mm | 0 m/s | - | - |
| 1777362601 | 12.22° C | 60% | 1024.6 hPa | 0 mm | 0 m/s | - | - |
| 1777362001 | 11.67° C | 62% | 1024.4 hPa | 0 mm | 0 m/s | - | - |
| 1777361401 | 11.11° C | 65% | 1024.2 hPa | 0 mm | 0 m/s | - | - |
| 1777360801 | 10.56° C | 66% | 1024.1 hPa | 0 mm | 0 m/s | - | - |
| 1777359601 | 10.56° C | 65% | 1024.3 hPa | 0 mm | 0 m/s | - | - |
| 1777359001 | 10.56° C | 64% | 1024.3 hPa | 0 mm | 0 m/s | - | - |
| 1777358401 | 11.11° C | 64% | 1024.3 hPa | 0 mm | 0 m/s | - | - |
| 1777357801 | 10° C | 67% | 1024.4 hPa | 0 mm | 0 m/s | - | - |
| 1777357201 | 8.89° C | 69% | 1024.2 hPa | 0 mm | 0 m/s | - | - |
| 1777356601 | 7.78° C | 73% | 1024.3 hPa | 0 mm | 0 m/s | - | - |
| 1777356001 | 7.78° C | 72% | 1024.1 hPa | 0 mm | 0 m/s | - | - |
| 1777355401 | 8.33° C | 71% | 1024 hPa | 0 mm | 0 m/s | - | - |
| 1777354801 | 7.78° C | 72% | 1024.3 hPa | 0 mm | 0 m/s | - | - |
| 1777354201 | 7.22° C | 75% | 1024 hPa | 0 mm | 0 m/s | - | - |
| 1777353601 | 6.67° C | 76% | 1024.1 hPa | 0 mm | 0 m/s | - | - |
| 1777353001 | 6.11° C | 78% | 1023.9 hPa | 0 mm | 0 m/s | - | - |
* Rain latest hour (hover to see other rain measurements)
** Current wind speed in m/s (hover to see current wind gust speed)